sensor_id;sensor_type;location;lat;lon;timestamp;temperature;humidity
3628;DHT22;1830;49.000;12.074;2024-02-04T00:02:02;6.70;99.90
3628;DHT22;1830;49.000;12.074;2024-02-04T00:04:29;6.80;99.90
3628;DHT22;1830;49.000;12.074;2024-02-04T00:06:58;6.80;99.90
3628;DHT22;1830;49.000;12.074;2024-02-04T00:09:24;6.80;99.90
3628;DHT22;1830;49.000;12.074;2024-02-04T00:11:53;6.80;99.90
3628;DHT22;1830;49.000;12.074;2024-02-04T00:14:20;6.70;99.90
3628;DHT22;1830;49.000;12.074;2024-02-04T00:16:46;6.60;99.90
3628;DHT22;1830;49.000;12.074;2024-02-04T00:19:15;6.60;99.90
3628;DHT22;1830;49.000;12.074;2024-02-04T00:21:41;6.60;99.90
3628;DHT22;1830;49.000;12.074;2024-02-04T00:24:08;6.50;99.90
3628;DHT22;1830;49.000;12.074;2024-02-04T00:26:35;6.60;99.90
3628;DHT22;1830;49.000;12.074;2024-02-04T00:29:02;6.60;99.90
3628;DHT22;1830;49.000;12.074;2024-02-04T00:31:28;6.90;99.90
3628;DHT22;1830;49.000;12.074;2024-02-04T00:33:55;6.80;99.90
3628;DHT22;1830;49.000;12.074;2024-02-04T00:36:23;6.70;99.90
3628;DHT22;1830;49.000;12.074;2024-02-04T00:38:50;6.70;99.90
3628;DHT22;1830;49.000;12.074;2024-02-04T00:41:17;6.60;99.90
3628;DHT22;1830;49.000;12.074;2024-02-04T00:43:44;6.50;99.90
3628;DHT22;1830;49.000;12.074;2024-02-04T00:46:11;6.40;99.90
3628;DHT22;1830;49.000;12.074;2024-02-04T00:48:38;6.50;99.90
3628;DHT22;1830;49.000;12.074;2024-02-04T00:51:06;6.50;99.90
3628;DHT22;1830;49.000;12.074;2024-02-04T00:53:35;6.60;99.90
3628;DHT22;1830;49.000;12.074;2024-02-04T00:56:03;6.60;99.90
3628;DHT22;1830;49.000;12.074;2024-02-04T00:58:30;6.70;99.90
3628;DHT22;1830;49.000;12.074;2024-02-04T01:00:57;6.70;99.90
3628;DHT22;1830;49.000;12.074;2024-02-04T01:03:23;6.70;99.90
3628;DHT22;1830;49.000;12.074;2024-02-04T01:05:51;6.70;99.90
3628;DHT22;1830;49.000;12.074;2024-02-04T01:08:17;6.80;99.90
3628;DHT22;1830;49.000;12.074;2024-02-04T01:10:46;6.70;99.90
3628;DHT22;1830;49.000;12.074;2024-02-04T01:13:13;6.70;99.90
3628;DHT22;1830;49.000;12.074;2024-02-04T01:15:40;6.70;99.90
3628;DHT22;1830;49.000;12.074;2024-02-04T01:18:07;6.70;99.90
3628;DHT22;1830;49.000;12.074;2024-02-04T01:20:33;6.80;99.90
3628;DHT22;1830;49.000;12.074;2024-02-04T01:23:00;6.80;99.90
3628;DHT22;1830;49.000;12.074;2024-02-04T01:25:27;6.80;99.90
3628;DHT22;1830;49.000;12.074;2024-02-04T01:27:55;6.80;99.90
3628;DHT22;1830;49.000;12.074;2024-02-04T01:30:22;6.90;99.90
3628;DHT22;1830;49.000;12.074;2024-02-04T01:32:49;6.90;99.90
3628;DHT22;1830;49.000;12.074;2024-02-04T01:35:15;6.90;99.90
3628;DHT22;1830;49.000;12.074;2024-02-04T01:37:41;6.90;99.90
3628;DHT22;1830;49.000;12.074;2024-02-04T01:40:10;7.00;99.90
3628;DHT22;1830;49.000;12.074;2024-02-04T01:42:37;7.10;99.90
3628;DHT22;1830;49.000;12.074;2024-02-04T01:45:06;7.10;99.90
3628;DHT22;1830;49.000;12.074;2024-02-04T01:47:34;7.20;99.90
3628;DHT22;1830;49.000;12.074;2024-02-04T01:50:01;7.20;99.90
3628;DHT22;1830;49.000;12.074;2024-02-04T01:52:30;7.20;99.90
3628;DHT22;1830;49.000;12.074;2024-02-04T01:54:59;7.10;99.90
3628;DHT22;1830;49.000;12.074;2024-02-04T01:57:27;7.30;99.90
3628;DHT22;1830;49.000;12.074;2024-02-04T01:59:55;7.30;99.90
3628;DHT22;1830;49.000;12.074;2024-02-04T02:02:29;7.10;99.90
3628;DHT22;1830;49.000;12.074;2024-02-04T02:04:57;7.20;99.90
3628;DHT22;1830;49.000;12.074;2024-02-04T02:07:23;7.30;99.90
3628;DHT22;1830;49.000;12.074;2024-02-04T02:09:53;7.30;99.90
3628;DHT22;1830;49.000;12.074;2024-02-04T02:12:24;7.30;99.90
3628;DHT22;1830;49.000;12.074;2024-02-04T02:14:56;7.30;99.90
3628;DHT22;1830;49.000;12.074;2024-02-04T02:17:31;7.10;99.90
3628;DHT22;1830;49.000;12.074;2024-02-04T02:20:02;7.10;99.90
3628;DHT22;1830;49.000;12.074;2024-02-04T02:22:39;7.00;99.90
3628;DHT22;1830;49.000;12.074;2024-02-04T02:25:11;7.10;99.90
3628;DHT22;1830;49.000;12.074;2024-02-04T02:27:46;7.10;99.90
3628;DHT22;1830;49.000;12.074;2024-02-04T02:30:14;7.00;99.90
3628;DHT22;1830;49.000;12.074;2024-02-04T02:32:41;6.90;99.90
3628;DHT22;1830;49.000;12.074;2024-02-04T02:35:08;7.10;99.90
3628;DHT22;1830;49.000;12.074;2024-02-04T02:37:40;7.10;99.90
3628;DHT22;1830;49.000;12.074;2024-02-04T02:40:16;7.10;99.90
3628;DHT22;1830;49.000;12.074;2024-02-04T02:42:46;7.10;99.90
3628;DHT22;1830;49.000;12.074;2024-02-04T02:45:14;7.10;99.90
3628;DHT22;1830;49.000;12.074;2024-02-04T02:47:42;7.00;99.90
3628;DHT22;1830;49.000;12.074;2024-02-04T02:50:11;7.10;99.90
3628;DHT22;1830;49.000;12.074;2024-02-04T02:52:38;7.10;99.90
3628;DHT22;1830;49.000;12.074;2024-02-04T02:55:06;6.90;99.90
3628;DHT22;1830;49.000;12.074;2024-02-04T02:57:34;6.80;99.90
3628;DHT22;1830;49.000;12.074;2024-02-04T03:00:01;6.90;99.90
3628;DHT22;1830;49.000;12.074;2024-02-04T03:02:28;6.90;99.90
3628;DHT22;1830;49.000;12.074;2024-02-04T03:04:55;6.80;99.90
3628;DHT22;1830;49.000;12.074;2024-02-04T03:07:22;6.90;99.90
3628;DHT22;1830;49.000;12.074;2024-02-04T03:09:49;7.00;99.90
3628;DHT22;1830;49.000;12.074;2024-02-04T03:12:16;6.90;99.90
3628;DHT22;1830;49.000;12.074;2024-02-04T03:14:44;7.00;99.90
3628;DHT22;1830;49.000;12.074;2024-02-04T03:17:10;7.00;99.90
3628;DHT22;1830;49.000;12.074;2024-02-04T03:19:39;6.90;99.90
3628;DHT22;1830;49.000;12.074;2024-02-04T03:22:05;6.90;99.90
3628;DHT22;1830;49.000;12.074;2024-02-04T03:24:32;6.90;99.90
3628;DHT22;1830;49.000;12.074;2024-02-04T03:26:59;7.00;99.90
3628;DHT22;1830;49.000;12.074;2024-02-04T03:29:26;7.00;99.90
3628;DHT22;1830;49.000;12.074;2024-02-04T03:31:55;6.90;99.90
3628;DHT22;1830;49.000;12.074;2024-02-04T03:34:22;7.00;99.90
3628;DHT22;1830;49.000;12.074;2024-02-04T03:36:48;7.00;99.90
3628;DHT22;1830;49.000;12.074;2024-02-04T03:39:15;6.90;99.90
3628;DHT22;1830;49.000;12.074;2024-02-04T03:41:42;7.00;99.90
3628;DHT22;1830;49.000;12.074;2024-02-04T03:44:09;7.00;99.90
3628;DHT22;1830;49.000;12.074;2024-02-04T03:46:36;6.90;99.90
3628;DHT22;1830;49.000;12.074;2024-02-04T03:49:07;7.00;99.90
3628;DHT22;1830;49.000;12.074;2024-02-04T03:51:34;7.10;99.90
3628;DHT22;1830;49.000;12.074;2024-02-04T03:54:01;7.10;99.90
3628;DHT22;1830;49.000;12.074;2024-02-04T03:56:28;7.00;99.90
3628;DHT22;1830;49.000;12.074;2024-02-04T03:58:56;6.90;99.90
3628;DHT22;1830;49.000;12.074;2024-02-04T04:01:22;6.80;99.90
3628;DHT22;1830;49.000;12.074;2024-02-04T04:03:49;6.90;99.90
3628;DHT22;1830;49.000;12.074;2024-02-04T04:06:17;6.80;99.90
3628;DHT22;1830;49.000;12.074;2024-02-04T04:11:11;6.80;99.90
3628;DHT22;1830;49.000;12.074;2024-02-04T04:13:38;6.90;99.90
3628;DHT22;1830;49.000;12.074;2024-02-04T04:16:05;6.90;99.90
3628;DHT22;1830;49.000;12.074;2024-02-04T04:18:32;6.90;99.90
3628;DHT22;1830;49.000;12.074;2024-02-04T04:21:00;6.80;99.90
3628;DHT22;1830;49.000;12.074;2024-02-04T04:23:28;7.00;99.90
3628;DHT22;1830;49.000;12.074;2024-02-04T04:25:55;6.90;99.90
3628;DHT22;1830;49.000;12.074;2024-02-04T04:28:21;6.80;99.90
3628;DHT22;1830;49.000;12.074;2024-02-04T04:30:48;6.90;99.90
3628;DHT22;1830;49.000;12.074;2024-02-04T04:33:15;6.90;99.90
3628;DHT22;1830;49.000;12.074;2024-02-04T04:35:42;6.80;99.90
3628;DHT22;1830;49.000;12.074;2024-02-04T04:38:08;6.70;99.90
3628;DHT22;1830;49.000;12.074;2024-02-04T04:40:37;6.70;99.90
3628;DHT22;1830;49.000;12.074;2024-02-04T04:43:06;6.80;99.90
3628;DHT22;1830;49.000;12.074;2024-02-04T04:45:32;6.90;99.90
3628;DHT22;1830;49.000;12.074;2024-02-04T04:47:59;6.80;99.90
3628;DHT22;1830;49.000;12.074;2024-02-04T04:50:27;6.80;99.90
3628;DHT22;1830;49.000;12.074;2024-02-04T04:52:54;6.80;99.90
3628;DHT22;1830;49.000;12.074;2024-02-04T04:55:20;6.90;99.90
3628;DHT22;1830;49.000;12.074;2024-02-04T04:57:48;6.80;99.90
3628;DHT22;1830;49.000;12.074;2024-02-04T05:00:16;6.80;99.90
3628;DHT22;1830;49.000;12.074;2024-02-04T05:02:43;6.90;99.90
3628;DHT22;1830;49.000;12.074;2024-02-04T05:05:10;6.90;99.90
3628;DHT22;1830;49.000;12.074;2024-02-04T05:07:37;6.80;99.90
3628;DHT22;1830;49.000;12.074;2024-02-04T05:10:05;6.80;99.90
3628;DHT22;1830;49.000;12.074;2024-02-04T05:12:32;7.00;99.90
3628;DHT22;1830;49.000;12.074;2024-02-04T05:15:01;6.90;99.90
3628;DHT22;1830;49.000;12.074;2024-02-04T05:17:30;6.70;99.90
3628;DHT22;1830;49.000;12.074;2024-02-04T05:19:57;6.80;99.90
3628;DHT22;1830;49.000;12.074;2024-02-04T05:22:24;6.80;99.90
3628;DHT22;1830;49.000;12.074;2024-02-04T05:24:51;6.70;99.90
3628;DHT22;1830;49.000;12.074;2024-02-04T05:27:17;6.90;99.90
3628;DHT22;1830;49.000;12.074;2024-02-04T05:29:44;6.80;99.90
3628;DHT22;1830;49.000;12.074;2024-02-04T05:32:12;6.80;99.90
3628;DHT22;1830;49.000;12.074;2024-02-04T05:34:40;6.70;99.90
3628;DHT22;1830;49.000;12.074;2024-02-04T05:37:06;6.60;99.90
3628;DHT22;1830;49.000;12.074;2024-02-04T05:39:33;6.70;99.90
3628;DHT22;1830;49.000;12.074;2024-02-04T05:42:00;6.70;99.90
3628;DHT22;1830;49.000;12.074;2024-02-04T05:44:27;6.60;99.90
3628;DHT22;1830;49.000;12.074;2024-02-04T05:46:53;6.50;99.90
3628;DHT22;1830;49.000;12.074;2024-02-04T05:49:21;6.60;99.90
3628;DHT22;1830;49.000;12.074;2024-02-04T05:51:48;6.60;99.90
3628;DHT22;1830;49.000;12.074;2024-02-04T05:54:15;6.60;99.90
3628;DHT22;1830;49.000;12.074;2024-02-04T05:56:42;6.60;99.90
3628;DHT22;1830;49.000;12.074;2024-02-04T05:59:09;6.60;99.90
3628;DHT22;1830;49.000;12.074;2024-02-04T06:01:35;6.50;99.90
3628;DHT22;1830;49.000;12.074;2024-02-04T06:04:02;6.60;99.90
3628;DHT22;1830;49.000;12.074;2024-02-04T06:06:30;6.60;99.90
3628;DHT22;1830;49.000;12.074;2024-02-04T06:08:57;6.70;99.90
3628;DHT22;1830;49.000;12.074;2024-02-04T06:11:24;6.70;99.90
3628;DHT22;1830;49.000;12.074;2024-02-04T06:13:51;6.60;99.90
3628;DHT22;1830;49.000;12.074;2024-02-04T06:16:18;6.50;99.90
3628;DHT22;1830;49.000;12.074;2024-02-04T06:18:44;6.40;99.90
3628;DHT22;1830;49.000;12.074;2024-02-04T06:21:11;6.30;99.90
3628;DHT22;1830;49.000;12.074;2024-02-04T06:23:39;6.40;99.90
3628;DHT22;1830;49.000;12.074;2024-02-04T06:26:06;6.50;99.90
3628;DHT22;1830;49.000;12.074;2024-02-04T06:28:33;6.50;99.90
3628;DHT22;1830;49.000;12.074;2024-02-04T06:31:00;6.40;99.90
3628;DHT22;1830;49.000;12.074;2024-02-04T06:33:27;6.40;99.90
3628;DHT22;1830;49.000;12.074;2024-02-04T06:35:54;6.40;99.90
3628;DHT22;1830;49.000;12.074;2024-02-04T06:38:21;6.50;99.90
3628;DHT22;1830;49.000;12.074;2024-02-04T06:40:49;6.40;99.90
3628;DHT22;1830;49.000;12.074;2024-02-04T06:43:16;6.40;99.90
3628;DHT22;1830;49.000;12.074;2024-02-04T06:45:43;6.30;99.90
3628;DHT22;1830;49.000;12.074;2024-02-04T06:48:10;6.10;99.90
3628;DHT22;1830;49.000;12.074;2024-02-04T06:50:37;6.20;99.90
3628;DHT22;1830;49.000;12.074;2024-02-04T06:53:03;6.30;99.90
3628;DHT22;1830;49.000;12.074;2024-02-04T06:55:30;6.20;99.90
3628;DHT22;1830;49.000;12.074;2024-02-04T06:57:58;6.10;99.90
3628;DHT22;1830;49.000;12.074;2024-02-04T07:00:25;6.10;99.90
3628;DHT22;1830;49.000;12.074;2024-02-04T07:02:52;6.10;99.90
3628;DHT22;1830;49.000;12.074;2024-02-04T07:05:19;6.10;99.90
3628;DHT22;1830;49.000;12.074;2024-02-04T07:07:47;6.10;99.90
3628;DHT22;1830;49.000;12.074;2024-02-04T07:10:14;6.20;99.90
3628;DHT22;1830;49.000;12.074;2024-02-04T07:12:41;6.20;99.90
3628;DHT22;1830;49.000;12.074;2024-02-04T07:15:09;6.30;99.90
3628;DHT22;1830;49.000;12.074;2024-02-04T07:17:36;6.30;99.90
3628;DHT22;1830;49.000;12.074;2024-02-04T07:20:03;6.50;99.90
3628;DHT22;1830;49.000;12.074;2024-02-04T07:22:31;6.50;99.90
3628;DHT22;1830;49.000;12.074;2024-02-04T07:24:58;6.40;99.90
3628;DHT22;1830;49.000;12.074;2024-02-04T07:27:24;6.40;99.90
3628;DHT22;1830;49.000;12.074;2024-02-04T07:29:51;6.50;99.90
3628;DHT22;1830;49.000;12.074;2024-02-04T07:32:21;6.50;99.90
3628;DHT22;1830;49.000;12.074;2024-02-04T07:34:49;6.50;99.90
3628;DHT22;1830;49.000;12.074;2024-02-04T07:37:16;6.50;99.90
3628;DHT22;1830;49.000;12.074;2024-02-04T07:39:43;6.40;99.90
3628;DHT22;1830;49.000;12.074;2024-02-04T07:42:10;6.40;99.90
3628;DHT22;1830;49.000;12.074;2024-02-04T07:44:36;6.40;99.90
3628;DHT22;1830;49.000;12.074;2024-02-04T07:47:03;6.40;99.90
3628;DHT22;1830;49.000;12.074;2024-02-04T07:49:31;6.40;99.90
3628;DHT22;1830;49.000;12.074;2024-02-04T07:51:58;6.60;99.90
3628;DHT22;1830;49.000;12.074;2024-02-04T07:54:25;6.70;99.90
3628;DHT22;1830;49.000;12.074;2024-02-04T07:56:52;6.60;99.90
3628;DHT22;1830;49.000;12.074;2024-02-04T07:59:18;6.80;99.90
3628;DHT22;1830;49.000;12.074;2024-02-04T08:01:45;6.80;99.90
3628;DHT22;1830;49.000;12.074;2024-02-04T08:04:12;6.70;99.90
3628;DHT22;1830;49.000;12.074;2024-02-04T08:06:40;6.70;99.90
3628;DHT22;1830;49.000;12.074;2024-02-04T08:09:07;7.00;99.90
3628;DHT22;1830;49.000;12.074;2024-02-04T08:11:34;6.90;99.90
3628;DHT22;1830;49.000;12.074;2024-02-04T08:14:00;6.80;99.90
3628;DHT22;1830;49.000;12.074;2024-02-04T08:16:27;6.70;99.90
3628;DHT22;1830;49.000;12.074;2024-02-04T08:18:54;6.80;99.90
3628;DHT22;1830;49.000;12.074;2024-02-04T08:21:21;6.80;99.90
3628;DHT22;1830;49.000;12.074;2024-02-04T08:23:49;6.90;99.90
3628;DHT22;1830;49.000;12.074;2024-02-04T08:26:16;6.90;99.90
3628;DHT22;1830;49.000;12.074;2024-02-04T08:28:43;6.90;99.90
3628;DHT22;1830;49.000;12.074;2024-02-04T08:31:10;7.00;99.90
3628;DHT22;1830;49.000;12.074;2024-02-04T08:33:36;7.00;99.90
3628;DHT22;1830;49.000;12.074;2024-02-04T08:36:04;7.00;99.90
3628;DHT22;1830;49.000;12.074;2024-02-04T08:38:32;7.00;99.90
3628;DHT22;1830;49.000;12.074;2024-02-04T08:41:00;7.10;99.90
3628;DHT22;1830;49.000;12.074;2024-02-04T08:43:27;7.10;99.90
3628;DHT22;1830;49.000;12.074;2024-02-04T08:45:53;7.20;99.90
3628;DHT22;1830;49.000;12.074;2024-02-04T08:48:20;7.10;99.90
3628;DHT22;1830;49.000;12.074;2024-02-04T08:50:47;7.10;99.90
3628;DHT22;1830;49.000;12.074;2024-02-04T08:53:14;7.10;99.90
3628;DHT22;1830;49.000;12.074;2024-02-04T08:55:41;7.20;99.90
3628;DHT22;1830;49.000;12.074;2024-02-04T08:58:09;7.20;99.90
3628;DHT22;1830;49.000;12.074;2024-02-04T09:00:36;7.30;99.90
3628;DHT22;1830;49.000;12.074;2024-02-04T09:03:03;7.30;99.90
3628;DHT22;1830;49.000;12.074;2024-02-04T09:05:30;7.30;99.90
3628;DHT22;1830;49.000;12.074;2024-02-04T09:07:57;7.30;99.90
3628;DHT22;1830;49.000;12.074;2024-02-04T09:10:23;7.40;99.90
3628;DHT22;1830;49.000;12.074;2024-02-04T09:12:50;7.50;99.90
3628;DHT22;1830;49.000;12.074;2024-02-04T09:15:18;7.60;99.90
3628;DHT22;1830;49.000;12.074;2024-02-04T09:17:45;7.50;99.90
3628;DHT22;1830;49.000;12.074;2024-02-04T09:20:12;7.50;99.90
3628;DHT22;1830;49.000;12.074;2024-02-04T09:22:40;7.50;99.90
3628;DHT22;1830;49.000;12.074;2024-02-04T09:25:08;7.50;99.90
3628;DHT22;1830;49.000;12.074;2024-02-04T09:27:34;7.50;99.90
3628;DHT22;1830;49.000;12.074;2024-02-04T09:30:02;7.50;99.90
3628;DHT22;1830;49.000;12.074;2024-02-04T09:32:30;7.60;99.90
3628;DHT22;1830;49.000;12.074;2024-02-04T09:34:57;7.70;99.90
3628;DHT22;1830;49.000;12.074;2024-02-04T09:37:24;7.70;99.90
3628;DHT22;1830;49.000;12.074;2024-02-04T09:39:51;7.70;99.90
3628;DHT22;1830;49.000;12.074;2024-02-04T09:42:19;7.70;99.90
3628;DHT22;1830;49.000;12.074;2024-02-04T09:44:47;7.70;99.90
3628;DHT22;1830;49.000;12.074;2024-02-04T09:47:15;7.70;99.90
3628;DHT22;1830;49.000;12.074;2024-02-04T09:49:43;7.60;99.90
3628;DHT22;1830;49.000;12.074;2024-02-04T09:52:12;7.70;99.90
3628;DHT22;1830;49.000;12.074;2024-02-04T09:54:45;7.80;99.90
3628;DHT22;1830;49.000;12.074;2024-02-04T09:57:14;7.90;99.90
3628;DHT22;1830;49.000;12.074;2024-02-04T09:59:44;7.80;99.90
3628;DHT22;1830;49.000;12.074;2024-02-04T10:02:13;7.80;99.90
3628;DHT22;1830;49.000;12.074;2024-02-04T10:04:39;7.80;99.90
3628;DHT22;1830;49.000;12.074;2024-02-04T10:07:08;7.90;99.90
3628;DHT22;1830;49.000;12.074;2024-02-04T10:09:35;7.90;99.90
3628;DHT22;1830;49.000;12.074;2024-02-04T10:12:02;8.10;99.90
3628;DHT22;1830;49.000;12.074;2024-02-04T10:14:29;7.90;99.90
3628;DHT22;1830;49.000;12.074;2024-02-04T10:16:56;7.90;99.90
3628;DHT22;1830;49.000;12.074;2024-02-04T10:19:24;7.90;99.90
3628;DHT22;1830;49.000;12.074;2024-02-04T10:21:58;7.90;99.90
3628;DHT22;1830;49.000;12.074;2024-02-04T10:24:27;7.90;99.90
3628;DHT22;1830;49.000;12.074;2024-02-04T10:26:54;8.00;99.90
3628;DHT22;1830;49.000;12.074;2024-02-04T10:29:21;8.10;99.90
3628;DHT22;1830;49.000;12.074;2024-02-04T10:31:48;8.10;99.90
3628;DHT22;1830;49.000;12.074;2024-02-04T10:34:15;8.00;99.90
3628;DHT22;1830;49.000;12.074;2024-02-04T10:36:42;7.90;99.90
3628;DHT22;1830;49.000;12.074;2024-02-04T10:39:09;7.90;99.90
3628;DHT22;1830;49.000;12.074;2024-02-04T10:41:43;7.80;99.90
3628;DHT22;1830;49.000;12.074;2024-02-04T10:44:16;7.90;99.90
3628;DHT22;1830;49.000;12.074;2024-02-04T10:46:46;7.80;99.90
3628;DHT22;1830;49.000;12.074;2024-02-04T10:49:14;7.80;99.90
3628;DHT22;1830;49.000;12.074;2024-02-04T10:51:42;7.80;99.90
3628;DHT22;1830;49.000;12.074;2024-02-04T10:54:09;7.70;99.90
3628;DHT22;1830;49.000;12.074;2024-02-04T10:56:42;7.70;99.90
3628;DHT22;1830;49.000;12.074;2024-02-04T10:59:11;7.80;99.90
3628;DHT22;1830;49.000;12.074;2024-02-04T11:01:38;7.70;99.90
3628;DHT22;1830;49.000;12.074;2024-02-04T11:04:09;7.80;99.90
3628;DHT22;1830;49.000;12.074;2024-02-04T11:06:38;7.70;99.90
3628;DHT22;1830;49.000;12.074;2024-02-04T11:09:07;7.80;99.90
3628;DHT22;1830;49.000;12.074;2024-02-04T11:11:35;7.90;99.90
3628;DHT22;1830;49.000;12.074;2024-02-04T11:14:06;7.90;99.90
3628;DHT22;1830;49.000;12.074;2024-02-04T11:16:53;8.00;99.90
3628;DHT22;1830;49.000;12.074;2024-02-04T11:19:32;8.00;99.90
3628;DHT22;1830;49.000;12.074;2024-02-04T11:22:17;8.00;99.90
3628;DHT22;1830;49.000;12.074;2024-02-04T11:24:58;8.10;99.90
3628;DHT22;1830;49.000;12.074;2024-02-04T11:27:27;8.00;99.90
3628;DHT22;1830;49.000;12.074;2024-02-04T11:29:56;8.00;99.90
3628;DHT22;1830;49.000;12.074;2024-02-04T11:32:24;8.10;99.90
3628;DHT22;1830;49.000;12.074;2024-02-04T11:34:51;8.10;99.90
3628;DHT22;1830;49.000;12.074;2024-02-04T11:37:18;8.00;99.90
3628;DHT22;1830;49.000;12.074;2024-02-04T11:39:50;8.10;99.90
3628;DHT22;1830;49.000;12.074;2024-02-04T11:42:17;8.10;99.90
3628;DHT22;1830;49.000;12.074;2024-02-04T11:44:44;8.00;99.90
3628;DHT22;1830;49.000;12.074;2024-02-04T11:47:22;8.10;99.90
3628;DHT22;1830;49.000;12.074;2024-02-04T11:49:53;8.10;99.90
3628;DHT22;1830;49.000;12.074;2024-02-04T11:52:20;8.20;99.90
3628;DHT22;1830;49.000;12.074;2024-02-04T11:54:47;8.30;99.90
3628;DHT22;1830;49.000;12.074;2024-02-04T11:57:14;8.20;99.90
3628;DHT22;1830;49.000;12.074;2024-02-04T11:59:42;8.30;99.90
3628;DHT22;1830;49.000;12.074;2024-02-04T12:02:12;8.30;99.90
3628;DHT22;1830;49.000;12.074;2024-02-04T12:04:39;8.20;99.90
3628;DHT22;1830;49.000;12.074;2024-02-04T12:07:07;8.30;99.90
3628;DHT22;1830;49.000;12.074;2024-02-04T12:09:35;8.20;99.90
3628;DHT22;1830;49.000;12.074;2024-02-04T12:12:02;8.30;99.90
3628;DHT22;1830;49.000;12.074;2024-02-04T12:14:30;8.40;99.90
3628;DHT22;1830;49.000;12.074;2024-02-04T12:16:58;8.40;99.90
3628;DHT22;1830;49.000;12.074;2024-02-04T12:19:26;8.30;99.90
3628;DHT22;1830;49.000;12.074;2024-02-04T12:21:53;8.20;99.90
3628;DHT22;1830;49.000;12.074;2024-02-04T12:24:21;8.10;99.90
3628;DHT22;1830;49.000;12.074;2024-02-04T12:26:48;8.10;99.90
3628;DHT22;1830;49.000;12.074;2024-02-04T12:29:15;8.10;99.90
3628;DHT22;1830;49.000;12.074;2024-02-04T12:31:41;7.90;99.90
3628;DHT22;1830;49.000;12.074;2024-02-04T12:34:08;7.90;99.90
3628;DHT22;1830;49.000;12.074;2024-02-04T12:36:39;8.00;99.90
3628;DHT22;1830;49.000;12.074;2024-02-04T12:39:05;7.90;99.90
3628;DHT22;1830;49.000;12.074;2024-02-04T12:41:35;7.90;99.90
3628;DHT22;1830;49.000;12.074;2024-02-04T12:44:02;7.80;99.90
3628;DHT22;1830;49.000;12.074;2024-02-04T12:46:30;7.90;99.90
3628;DHT22;1830;49.000;12.074;2024-02-04T12:48:58;7.90;99.90
3628;DHT22;1830;49.000;12.074;2024-02-04T12:51:26;7.80;99.90
3628;DHT22;1830;49.000;12.074;2024-02-04T12:54:04;7.90;99.90
3628;DHT22;1830;49.000;12.074;2024-02-04T12:56:45;7.80;99.90
3628;DHT22;1830;49.000;12.074;2024-02-04T12:59:24;7.90;99.90
3628;DHT22;1830;49.000;12.074;2024-02-04T13:01:53;7.90;99.90
3628;DHT22;1830;49.000;12.074;2024-02-04T13:04:20;8.00;99.90
3628;DHT22;1830;49.000;12.074;2024-02-04T13:06:47;8.00;99.90
3628;DHT22;1830;49.000;12.074;2024-02-04T13:09:15;8.00;99.90
3628;DHT22;1830;49.000;12.074;2024-02-04T13:11:43;8.10;99.90
3628;DHT22;1830;49.000;12.074;2024-02-04T13:14:10;8.00;99.90
3628;DHT22;1830;49.000;12.074;2024-02-04T13:16:37;8.00;99.90
3628;DHT22;1830;49.000;12.074;2024-02-04T13:19:04;8.00;99.90
3628;DHT22;1830;49.000;12.074;2024-02-04T13:21:32;8.10;99.90
3628;DHT22;1830;49.000;12.074;2024-02-04T13:23:59;8.20;99.90
3628;DHT22;1830;49.000;12.074;2024-02-04T13:26:27;8.30;99.90
3628;DHT22;1830;49.000;12.074;2024-02-04T13:28:54;8.40;99.90
3628;DHT22;1830;49.000;12.074;2024-02-04T13:31:21;8.30;99.90
3628;DHT22;1830;49.000;12.074;2024-02-04T13:33:47;8.30;99.90
3628;DHT22;1830;49.000;12.074;2024-02-04T13:36:14;8.30;99.90
3628;DHT22;1830;49.000;12.074;2024-02-04T13:38:41;8.40;99.90
3628;DHT22;1830;49.000;12.074;2024-02-04T13:41:08;8.30;99.90
3628;DHT22;1830;49.000;12.074;2024-02-04T13:43:36;8.40;99.90
3628;DHT22;1830;49.000;12.074;2024-02-04T13:46:03;8.60;99.90
3628;DHT22;1830;49.000;12.074;2024-02-04T13:48:30;8.60;99.90
3628;DHT22;1830;49.000;12.074;2024-02-04T13:50:57;8.60;99.90
3628;DHT22;1830;49.000;12.074;2024-02-04T13:53:24;8.50;99.90
3628;DHT22;1830;49.000;12.074;2024-02-04T13:55:50;8.50;99.90
3628;DHT22;1830;49.000;12.074;2024-02-04T13:58:17;8.70;99.90
3628;DHT22;1830;49.000;12.074;2024-02-04T14:00:46;8.70;99.90
3628;DHT22;1830;49.000;12.074;2024-02-04T14:03:13;8.60;99.90
3628;DHT22;1830;49.000;12.074;2024-02-04T14:05:40;8.60;99.90
3628;DHT22;1830;49.000;12.074;2024-02-04T14:08:07;8.70;99.90
3628;DHT22;1830;49.000;12.074;2024-02-04T14:10:34;8.60;99.90
3628;DHT22;1830;49.000;12.074;2024-02-04T14:13:02;8.80;99.90
3628;DHT22;1830;49.000;12.074;2024-02-04T14:15:30;8.80;99.90
3628;DHT22;1830;49.000;12.074;2024-02-04T14:17:59;9.00;99.90
3628;DHT22;1830;49.000;12.074;2024-02-04T14:20:26;8.90;99.90
3628;DHT22;1830;49.000;12.074;2024-02-04T14:22:53;9.10;99.90
3628;DHT22;1830;49.000;12.074;2024-02-04T14:25:20;9.20;99.90
3628;DHT22;1830;49.000;12.074;2024-02-04T14:27:47;9.30;99.90
3628;DHT22;1830;49.000;12.074;2024-02-04T14:30:14;9.30;99.90
3628;DHT22;1830;49.000;12.074;2024-02-04T14:32:41;9.30;99.90
3628;DHT22;1830;49.000;12.074;2024-02-04T14:35:10;9.20;99.90
3628;DHT22;1830;49.000;12.074;2024-02-04T14:37:37;9.10;99.90
3628;DHT22;1830;49.000;12.074;2024-02-04T14:40:05;9.20;99.90
3628;DHT22;1830;49.000;12.074;2024-02-04T14:42:33;9.30;99.90
3628;DHT22;1830;49.000;12.074;2024-02-04T14:45:00;9.40;99.90
3628;DHT22;1830;49.000;12.074;2024-02-04T14:47:27;9.50;99.90
3628;DHT22;1830;49.000;12.074;2024-02-04T14:49:54;9.40;99.90
3628;DHT22;1830;49.000;12.074;2024-02-04T14:52:22;9.40;99.90
3628;DHT22;1830;49.000;12.074;2024-02-04T14:54:49;9.50;99.90
3628;DHT22;1830;49.000;12.074;2024-02-04T14:57:16;9.50;99.90
3628;DHT22;1830;49.000;12.074;2024-02-04T14:59:43;9.60;99.90
3628;DHT22;1830;49.000;12.074;2024-02-04T15:02:10;9.40;99.90
3628;DHT22;1830;49.000;12.074;2024-02-04T15:04:37;9.30;99.90
3628;DHT22;1830;49.000;12.074;2024-02-04T15:07:04;9.30;99.90
3628;DHT22;1830;49.000;12.074;2024-02-04T15:09:33;9.20;99.90
3628;DHT22;1830;49.000;12.074;2024-02-04T15:12:01;9.40;99.90
3628;DHT22;1830;49.000;12.074;2024-02-04T15:14:28;9.40;99.90
3628;DHT22;1830;49.000;12.074;2024-02-04T15:16:56;9.40;99.90
3628;DHT22;1830;49.000;12.074;2024-02-04T15:19:24;9.30;99.90
3628;DHT22;1830;49.000;12.074;2024-02-04T15:21:52;9.20;99.90
3628;DHT22;1830;49.000;12.074;2024-02-04T15:24:19;9.40;99.90
3628;DHT22;1830;49.000;12.074;2024-02-04T15:26:48;9.40;99.90
3628;DHT22;1830;49.000;12.074;2024-02-04T15:29:15;9.30;99.90
3628;DHT22;1830;49.000;12.074;2024-02-04T15:31:43;9.20;99.90
3628;DHT22;1830;49.000;12.074;2024-02-04T15:34:12;9.20;99.90
3628;DHT22;1830;49.000;12.074;2024-02-04T15:36:39;9.30;99.90
3628;DHT22;1830;49.000;12.074;2024-02-04T15:39:06;9.10;99.90
3628;DHT22;1830;49.000;12.074;2024-02-04T15:41:36;9.30;99.90
3628;DHT22;1830;49.000;12.074;2024-02-04T15:44:05;9.20;99.90
3628;DHT22;1830;49.000;12.074;2024-02-04T15:46:32;9.10;99.90
3628;DHT22;1830;49.000;12.074;2024-02-04T15:49:01;9.00;99.90
3628;DHT22;1830;49.000;12.074;2024-02-04T15:51:30;9.10;99.90
3628;DHT22;1830;49.000;12.074;2024-02-04T15:53:57;9.30;99.90
3628;DHT22;1830;49.000;12.074;2024-02-04T15:56:32;9.10;99.90
3628;DHT22;1830;49.000;12.074;2024-02-04T15:59:07;9.00;99.90
3628;DHT22;1830;49.000;12.074;2024-02-04T16:01:36;9.00;99.90
3628;DHT22;1830;49.000;12.074;2024-02-04T16:04:03;8.90;99.90
3628;DHT22;1830;49.000;12.074;2024-02-04T16:06:31;9.00;99.90
3628;DHT22;1830;49.000;12.074;2024-02-04T16:08:58;9.00;99.90